createdAt,value
2017-09-23T00:00:33.751Z,1009.0
2017-09-23T00:01:34.548Z,1009.0
2017-09-23T00:02:35.693Z,1009.0
2017-09-23T00:03:36.439Z,1009.0
2017-09-23T00:04:37.117Z,1009.0
2017-09-23T00:05:37.926Z,1009.0
2017-09-23T00:06:38.734Z,1009.1
2017-09-23T00:07:39.784Z,1009.0
2017-09-23T00:08:40.555Z,1009.0
2017-09-23T00:09:41.292Z,1009.0
2017-09-23T00:10:42.036Z,1009.0
2017-09-23T00:11:42.774Z,1009.0
2017-09-23T00:12:43.975Z,1009.0
2017-09-23T00:13:44.716Z,1009.0
2017-09-23T00:14:45.449Z,1009.0
2017-09-23T00:15:46.179Z,1009.0
2017-09-23T00:16:46.923Z,1009.0
2017-09-23T00:17:47.672Z,1009.0
2017-09-23T00:18:48.724Z,1009.0
2017-09-23T00:19:49.553Z,1009.0
2017-09-23T00:20:50.274Z,1009.0
2017-09-23T00:21:51.016Z,1009.0
2017-09-23T00:22:51.823Z,1008.9
2017-09-23T00:23:52.854Z,1009.0
2017-09-23T00:24:53.592Z,1009.0
2017-09-23T00:25:54.334Z,1009.0
2017-09-23T00:26:55.134Z,1009.0
2017-09-23T00:27:55.873Z,1009.0
2017-09-23T00:28:56.798Z,1009.0
2017-09-23T00:29:57.542Z,1009.0
2017-09-23T00:30:58.293Z,1009.0
2017-09-23T00:31:59.084Z,1009.1
2017-09-23T00:32:59.814Z,1009.0
2017-09-23T00:34:00.799Z,1009.0
2017-09-23T00:35:01.584Z,1009.0
2017-09-23T00:36:02.328Z,1009.0
2017-09-23T00:37:03.062Z,1009.0
2017-09-23T00:38:03.783Z,1009.0
2017-09-23T00:39:04.517Z,1008.9
2017-09-23T00:40:05.244Z,1008.9
2017-09-23T00:41:06.233Z,1008.9
2017-09-23T00:42:06.976Z,1008.9
2017-09-23T00:43:08.245Z,1008.9
2017-09-23T00:44:09.578Z,1008.9
2017-09-23T00:45:10.271Z,1008.8
2017-09-23T00:46:12.366Z,1008.9
2017-09-23T00:47:13.355Z,1008.9
2017-09-23T00:48:14.157Z,1008.9
2017-09-23T00:49:14.992Z,1008.9
2017-09-23T00:50:15.712Z,1008.9
2017-09-23T00:51:16.526Z,1008.9
2017-09-23T00:52:17.309Z,1008.9
2017-09-23T00:53:18.444Z,1008.9
2017-09-23T00:54:19.174Z,1008.9
2017-09-23T00:55:19.903Z,1008.9
2017-09-23T00:56:20.701Z,1008.9
2017-09-23T00:57:21.493Z,1008.9
2017-09-23T00:58:22.524Z,1008.9
2017-09-23T00:59:23.343Z,1008.9
2017-09-23T01:00:24.075Z,1008.9
2017-09-23T01:01:24.814Z,1008.9
2017-09-23T01:02:25.548Z,1008.9
2017-09-23T01:03:26.683Z,1008.8
2017-09-23T01:04:27.413Z,1008.9
2017-09-23T01:05:28.177Z,1008.8
2017-09-23T01:06:28.926Z,1008.9
2017-09-23T01:07:29.744Z,1008.8
2017-09-23T01:08:30.783Z,1008.8
2017-09-23T01:09:31.515Z,1008.8
2017-09-23T01:10:32.314Z,1008.8
2017-09-23T01:11:33.081Z,1008.8
2017-09-23T01:12:33.933Z,1008.8
2017-09-23T01:13:34.966Z,1008.8
2017-09-23T01:14:35.703Z,1008.7
2017-09-23T01:15:36.443Z,1008.8
2017-09-23T01:16:37.167Z,1008.7
2017-09-23T01:17:37.911Z,1008.7
2017-09-23T01:18:39.123Z,1008.7
2017-09-23T01:19:39.858Z,1008.7
2017-09-23T01:20:40.666Z,1008.7
2017-09-23T01:21:41.453Z,1008.7
2017-09-23T01:22:42.193Z,1008.7
2017-09-23T01:23:43.283Z,1008.7
2017-09-23T01:24:44.023Z,1008.7
2017-09-23T01:25:44.752Z,1008.7
2017-09-23T01:26:45.484Z,1008.7
2017-09-23T01:27:46.222Z,1008.7
2017-09-23T01:28:47.251Z,1008.7
2017-09-23T01:29:47.993Z,1008.7
2017-09-23T01:30:49.438Z,1008.7
2017-09-23T01:31:50.491Z,1008.7
2017-09-23T01:32:51.975Z,1008.7
2017-09-23T01:33:53.386Z,1008.7
2017-09-23T01:34:56.082Z,1008.7
2017-09-23T01:35:57.866Z,1008.7
2017-09-23T01:36:59.494Z,1008.7
2017-09-23T01:38:00.175Z,1008.7
2017-09-23T01:39:01.271Z,1008.7
2017-09-23T01:40:02.004Z,1008.7
2017-09-23T01:41:02.733Z,1008.7
2017-09-23T01:42:03.464Z,1008.7
2017-09-23T01:43:04.205Z,1008.7
2017-09-23T01:44:05.001Z,1008.7
2017-09-23T01:45:05.993Z,1008.7
2017-09-23T01:46:06.756Z,1008.7
2017-09-23T01:47:07.568Z,1008.7
2017-09-23T01:48:08.306Z,1008.7
2017-09-23T01:49:09.104Z,1008.7
2017-09-23T01:50:10.099Z,1008.7
2017-09-23T01:51:10.892Z,1008.7
2017-09-23T01:52:11.649Z,1008.7
2017-09-23T01:53:12.443Z,1008.7
2017-09-23T01:54:13.173Z,1008.7
2017-09-23T01:55:14.204Z,1008.7
2017-09-23T01:56:14.936Z,1008.7
2017-09-23T01:57:15.663Z,1008.7
2017-09-23T01:58:16.425Z,1008.7
2017-09-23T01:59:17.151Z,1008.7
2017-09-23T02:00:18.335Z,1008.7
2017-09-23T02:01:19.123Z,1008.7
2017-09-23T02:02:19.854Z,1008.7
2017-09-23T02:03:20.666Z,1008.7
2017-09-23T02:04:21.455Z,1008.8
2017-09-23T02:05:22.606Z,1008.7
2017-09-23T02:06:23.335Z,1008.7
2017-09-23T02:07:24.077Z,1008.8
2017-09-23T02:08:24.868Z,1008.7
2017-09-23T02:09:25.601Z,1008.8
2017-09-23T02:10:26.746Z,1008.7
2017-09-23T02:11:27.562Z,1008.7
2017-09-23T02:12:28.237Z,1008.7
2017-09-23T02:13:29.054Z,1008.7
2017-09-23T02:14:29.848Z,1008.8
2017-09-23T02:15:30.589Z,1008.7
2017-09-23T02:16:31.774Z,1008.7
2017-09-23T02:17:32.505Z,1008.7
2017-09-23T02:18:33.228Z,1008.7
2017-09-23T02:19:33.969Z,1008.7
2017-09-23T02:20:34.747Z,1008.7
2017-09-23T02:21:35.550Z,1008.7
2017-09-23T02:22:36.264Z,1008.7
2017-09-23T02:23:37.003Z,1008.7
2017-09-23T02:24:37.743Z,1008.8
2017-09-23T02:25:38.480Z,1008.7
2017-09-23T02:26:39.669Z,1008.7
2017-09-23T02:27:40.411Z,1008.7
2017-09-23T02:28:41.142Z,1008.7
2017-09-23T02:29:41.889Z,1008.7
2017-09-23T02:30:42.624Z,1008.7
2017-09-23T02:31:43.675Z,1008.7
2017-09-23T02:32:44.513Z,1008.6
2017-09-23T02:33:45.304Z,1008.7
2017-09-23T02:34:46.039Z,1008.7
2017-09-23T02:35:46.773Z,1008.7
2017-09-23T02:36:47.805Z,1008.7
2017-09-23T02:37:48.599Z,1008.7
2017-09-23T02:38:49.325Z,1008.7
2017-09-23T02:39:50.146Z,1008.7
2017-09-23T02:40:50.858Z,1008.7
2017-09-23T02:41:51.845Z,1008.7
2017-09-23T02:42:52.635Z,1008.7
2017-09-23T02:43:53.453Z,1008.7
2017-09-23T02:44:54.188Z,1008.7
2017-09-23T02:45:55.006Z,1008.7
2017-09-23T02:46:56.154Z,1008.7
2017-09-23T02:47:56.889Z,1008.7
2017-09-23T02:48:57.670Z,1008.7
2017-09-23T02:49:58.476Z,1008.7
2017-09-23T02:50:59.212Z,1008.7
2017-09-23T02:51:59.977Z,1008.7
2017-09-23T02:53:00.757Z,1008.7
2017-09-23T02:54:01.574Z,1008.7
2017-09-23T02:55:02.654Z,1008.7
2017-09-23T02:56:03.465Z,1008.7
2017-09-23T02:57:04.208Z,1008.7
2017-09-23T02:58:04.925Z,1008.7
2017-09-23T02:59:05.648Z,1008.7
2017-09-23T03:00:06.741Z,1008.7
2017-09-23T03:01:07.478Z,1008.7
2017-09-23T03:02:08.285Z,1008.6
2017-09-23T03:03:09.079Z,1008.7
2017-09-23T03:04:09.847Z,1008.7
2017-09-23T03:05:10.615Z,1008.7
2017-09-23T03:06:11.404Z,1008.6
2017-09-23T03:07:12.180Z,1008.7
2017-09-23T03:08:12.924Z,1008.6
2017-09-23T03:09:13.749Z,1008.6
2017-09-23T03:10:14.483Z,1008.6
2017-09-23T03:11:15.287Z,1008.6
2017-09-23T03:12:17.789Z,1008.7
2017-09-23T03:13:20.069Z,1008.7
2017-09-23T03:14:20.230Z,1008.7
2017-09-23T03:15:22.528Z,1008.7
2017-09-23T03:16:23.744Z,1008.7
2017-09-23T03:17:26.285Z,1008.7
2017-09-23T03:18:27.026Z,1008.7
2017-09-23T03:19:28.170Z,1008.7
2017-09-23T03:20:28.864Z,1008.7
2017-09-23T03:21:29.637Z,1008.7
2017-09-23T03:22:30.721Z,1008.7
2017-09-23T03:23:31.454Z,1008.7
2017-09-23T03:24:32.180Z,1008.7
2017-09-23T03:25:32.916Z,1008.8
2017-09-23T03:26:33.653Z,1008.8
2017-09-23T03:27:34.456Z,1008.8
2017-09-23T03:28:35.190Z,1008.8
2017-09-23T03:29:35.926Z,1008.8
2017-09-23T03:30:37.031Z,1008.7
2017-09-23T03:31:37.796Z,1008.7
2017-09-23T03:32:38.540Z,1008.7
2017-09-23T03:33:39.366Z,1008.7
2017-09-23T03:34:40.100Z,1008.7
2017-09-23T03:35:41.191Z,1008.7
2017-09-23T03:36:41.927Z,1008.7
2017-09-23T03:37:42.736Z,1008.7
2017-09-23T03:38:43.520Z,1008.7
2017-09-23T03:39:44.262Z,1008.8
2017-09-23T03:40:45.428Z,1008.8
2017-09-23T03:41:46.215Z,1008.8
2017-09-23T03:42:47.034Z,1008.8
2017-09-23T03:43:47.814Z,1008.8
2017-09-23T03:44:48.549Z,1008.8
2017-09-23T03:45:49.754Z,1008.8
2017-09-23T03:46:50.487Z,1008.8
2017-09-23T03:47:51.265Z,1008.8
2017-09-23T03:48:52.074Z,1008.8
2017-09-23T03:49:52.831Z,1008.8
2017-09-23T03:50:54.026Z,1008.8
2017-09-23T03:51:54.821Z,1008.8
2017-09-23T03:52:55.565Z,1008.9
2017-09-23T03:53:56.362Z,1008.9
2017-09-23T03:54:57.101Z,1008.9
2017-09-23T03:55:58.041Z,1008.9
2017-09-23T03:56:58.774Z,1008.9
2017-09-23T03:57:59.495Z,1008.9
2017-09-23T03:59:00.294Z,1008.9
2017-09-23T04:00:01.024Z,1008.9
2017-09-23T04:01:02.158Z,1008.9
2017-09-23T04:02:02.899Z,1008.9
2017-09-23T04:03:03.669Z,1008.9
2017-09-23T04:04:04.477Z,1008.9
2017-09-23T04:05:05.286Z,1008.9
2017-09-23T04:06:07.367Z,1008.9
2017-09-23T04:07:09.593Z,1008.9
2017-09-23T04:08:09.800Z,1008.9
2017-09-23T04:09:10.571Z,1009.0
2017-09-23T04:10:11.315Z,1008.9
2017-09-23T04:11:12.420Z,1008.9
2017-09-23T04:12:13.149Z,1009.0
2017-09-23T04:13:13.971Z,1008.9
2017-09-23T04:14:14.730Z,1008.9
2017-09-23T04:15:15.465Z,1009.0
2017-09-23T04:16:16.132Z,1008.9
2017-09-23T04:17:16.865Z,1009.0
2017-09-23T04:18:17.672Z,1008.9
2017-09-23T04:19:18.779Z,1009.0
2017-09-23T04:20:19.515Z,1009.0
2017-09-23T04:21:20.240Z,1009.0
2017-09-23T04:22:20.980Z,1008.9
2017-09-23T04:23:21.712Z,1009.0
2017-09-23T04:24:22.846Z,1009.0
2017-09-23T04:25:23.581Z,1009.0
2017-09-23T04:26:24.312Z,1009.0
2017-09-23T04:27:25.065Z,1009.0
2017-09-23T04:28:25.790Z,1009.0
2017-09-23T04:29:26.542Z,1009.0
2017-09-23T04:30:27.283Z,1009.0
2017-09-23T04:31:28.087Z,1009.0
2017-09-23T04:32:28.824Z,1009.0
2017-09-23T04:33:29.552Z,1009.0
2017-09-23T04:34:30.582Z,1009.0
2017-09-23T04:35:31.413Z,1009.0
2017-09-23T04:36:32.201Z,1009.0
2017-09-23T04:37:32.944Z,1009.0
2017-09-23T04:38:33.675Z,1009.0
2017-09-23T04:39:34.405Z,1009.0
2017-09-23T04:40:35.147Z,1009.0
2017-09-23T04:41:35.960Z,1009.1
2017-09-23T04:42:36.945Z,1009.0
2017-09-23T04:43:37.671Z,1009.1
2017-09-23T04:44:38.420Z,1009.1
2017-09-23T04:45:39.198Z,1009.1
2017-09-23T04:46:39.925Z,1009.1
2017-09-23T04:47:41.066Z,1009.0
2017-09-23T04:48:41.866Z,1009.1
2017-09-23T04:49:42.604Z,1009.1
2017-09-23T04:50:43.421Z,1009.1
2017-09-23T04:51:44.144Z,1009.1
2017-09-23T04:52:45.043Z,1009.1
2017-09-23T04:53:45.844Z,1009.1
2017-09-23T04:54:46.585Z,1009.1
2017-09-23T04:55:47.312Z,1009.1
2017-09-23T04:56:48.047Z,1009.1
2017-09-23T04:57:49.126Z,1009.1
2017-09-23T04:58:49.872Z,1009.1
2017-09-23T04:59:50.542Z,1009.1
2017-09-23T05:00:51.264Z,1009.1
2017-09-23T05:01:52.063Z,1009.1
2017-09-23T05:02:53.122Z,1009.1
2017-09-23T05:03:53.856Z,1009.1
2017-09-23T05:04:54.652Z,1009.2
2017-09-23T05:05:55.445Z,1009.2
2017-09-23T05:06:56.178Z,1009.2
2017-09-23T05:07:57.235Z,1009.2
2017-09-23T05:08:57.969Z,1009.2
2017-09-23T05:09:58.759Z,1009.2
2017-09-23T05:10:59.490Z,1009.2
2017-09-23T05:12:00.232Z,1009.2
2017-09-23T05:13:01.365Z,1009.2
2017-09-23T05:14:02.101Z,1009.3
2017-09-23T05:15:02.834Z,1009.3
2017-09-23T05:16:03.566Z,1009.3
2017-09-23T05:17:04.357Z,1009.3
2017-09-23T05:18:05.492Z,1009.3
2017-09-23T05:19:06.246Z,1009.3
2017-09-23T05:20:06.986Z,1009.3
2017-09-23T05:21:07.712Z,1009.3
2017-09-23T05:22:08.452Z,1009.3
2017-09-23T05:23:09.423Z,1009.4
2017-09-23T05:24:10.233Z,1009.3
2017-09-23T05:25:10.972Z,1009.3
2017-09-23T05:26:11.732Z,1009.4
2017-09-23T05:27:12.528Z,1009.4
2017-09-23T05:28:13.621Z,1009.4
2017-09-23T05:29:14.348Z,1009.4
2017-09-23T05:30:15.097Z,1009.4
2017-09-23T05:31:15.919Z,1009.4
2017-09-23T05:32:16.675Z,1009.4
2017-09-23T05:33:17.810Z,1009.4
2017-09-23T05:34:18.611Z,1009.4
2017-09-23T05:35:19.447Z,1009.4
2017-09-23T05:36:20.234Z,1009.4
2017-09-23T05:37:21.042Z,1009.4
2017-09-23T05:38:22.122Z,1009.4
2017-09-23T05:39:23.208Z,1009.4
2017-09-23T05:40:23.872Z,1009.4
2017-09-23T05:41:24.702Z,1009.3
2017-09-23T05:42:25.435Z,1009.4
2017-09-23T05:43:26.494Z,1009.4
2017-09-23T05:44:27.852Z,1009.4
2017-09-23T05:45:29.074Z,1009.4
2017-09-23T05:46:30.440Z,1009.4
2017-09-23T05:47:31.316Z,1009.4
2017-09-23T05:48:33.101Z,1009.4
2017-09-23T05:49:34.660Z,1009.4
2017-09-23T05:50:35.361Z,1009.5
2017-09-23T05:51:36.148Z,1009.4
2017-09-23T05:52:36.894Z,1009.4
2017-09-23T05:53:37.886Z,1009.4
2017-09-23T05:54:38.650Z,1009.5
2017-09-23T05:55:39.453Z,1009.4
2017-09-23T05:56:40.262Z,1009.5
2017-09-23T05:57:40.995Z,1009.4
2017-09-23T05:58:42.090Z,1009.4
2017-09-23T05:59:42.882Z,1009.4
2017-09-23T06:00:43.634Z,1009.4
2017-09-23T06:01:44.444Z,1009.4
2017-09-23T06:02:45.194Z,1009.4
2017-09-23T06:03:46.253Z,1009.4
2017-09-23T06:04:46.982Z,1009.4
2017-09-23T06:05:47.723Z,1009.5
2017-09-23T06:06:48.549Z,1009.5
2017-09-23T06:07:49.273Z,1009.5
2017-09-23T06:08:50.352Z,1009.5
2017-09-23T06:09:51.095Z,1009.5
2017-09-23T06:10:51.831Z,1009.5
2017-09-23T06:11:52.572Z,1009.6
2017-09-23T06:12:53.313Z,1009.6
2017-09-23T06:13:54.437Z,1009.6
2017-09-23T06:14:55.260Z,1009.6
2017-09-23T06:15:56.026Z,1009.6
2017-09-23T06:16:56.735Z,1009.6
2017-09-23T06:17:57.475Z,1009.6
2017-09-23T06:18:58.303Z,1009.6
2017-09-23T06:19:59.512Z,1009.6
2017-09-23T06:21:00.247Z,1009.6
2017-09-23T06:22:00.994Z,1009.6
2017-09-23T06:23:01.803Z,1009.6
2017-09-23T06:24:02.572Z,1009.6
2017-09-23T06:25:03.624Z,1009.6
2017-09-23T06:26:04.373Z,1009.6
2017-09-23T06:27:05.170Z,1009.6
2017-09-23T06:28:05.924Z,1009.6
2017-09-23T06:29:06.731Z,1009.6
2017-09-23T06:30:07.485Z,1009.7
2017-09-23T06:31:08.676Z,1009.7
2017-09-23T06:32:09.447Z,1009.7
2017-09-23T06:33:10.275Z,1009.7
2017-09-23T06:34:11.014Z,1009.8
2017-09-23T06:35:11.836Z,1009.7
2017-09-23T06:36:13.044Z,1009.7
2017-09-23T06:37:13.842Z,1009.7
2017-09-23T06:38:14.593Z,1009.8
2017-09-23T06:39:15.386Z,1009.7
2017-09-23T06:40:16.195Z,1009.7
2017-09-23T06:41:17.240Z,1009.7
2017-09-23T06:42:17.952Z,1009.7
2017-09-23T06:43:18.738Z,1009.7
2017-09-23T06:44:19.477Z,1009.7
2017-09-23T06:45:20.268Z,1009.7
2017-09-23T06:46:21.202Z,1009.7
2017-09-23T06:47:21.950Z,1009.7
2017-09-23T06:48:22.686Z,1009.7
2017-09-23T06:49:23.437Z,1009.7
2017-09-23T06:50:24.199Z,1009.8
2017-09-23T06:51:25.290Z,1009.8
2017-09-23T06:52:26.028Z,1009.8
2017-09-23T06:53:26.747Z,1009.8
2017-09-23T06:54:27.485Z,1009.8
2017-09-23T06:55:28.280Z,1009.8
2017-09-23T06:56:29.383Z,1009.9
2017-09-23T06:57:30.124Z,1009.9
2017-09-23T06:58:30.936Z,1009.9
2017-09-23T06:59:31.663Z,1009.9
2017-09-23T07:00:32.466Z,1009.9
2017-09-23T07:01:33.508Z,1010.0
2017-09-23T07:02:34.246Z,1010.0
2017-09-23T07:03:35.004Z,1010.0
2017-09-23T07:04:35.787Z,1010.0
2017-09-23T07:05:36.530Z,1010.0
2017-09-23T07:06:37.745Z,1010.0
2017-09-23T07:07:38.496Z,1010.1
2017-09-23T07:08:39.245Z,1010.1
2017-09-23T07:09:39.985Z,1010.1
2017-09-23T07:10:40.727Z,1010.1
2017-09-23T07:11:41.540Z,1010.1
2017-09-23T07:12:42.558Z,1010.2
2017-09-23T07:13:43.351Z,1010.1
2017-09-23T07:14:44.087Z,1010.1
2017-09-23T07:15:44.826Z,1010.1
2017-09-23T07:16:45.565Z,1010.2
2017-09-23T07:17:46.556Z,1010.1
2017-09-23T07:18:47.291Z,1010.1
2017-09-23T07:19:48.032Z,1010.1
2017-09-23T07:20:48.775Z,1010.1
2017-09-23T07:21:49.511Z,1010.2
2017-09-23T07:22:50.657Z,1010.2
2017-09-23T07:23:51.405Z,1010.2
2017-09-23T07:24:52.158Z,1010.3
2017-09-23T07:25:52.978Z,1010.3
2017-09-23T07:26:53.789Z,1010.3
2017-09-23T07:27:54.871Z,1010.3
2017-09-23T07:28:55.617Z,1010.3
2017-09-23T07:29:56.415Z,1010.3
2017-09-23T07:30:57.147Z,1010.3
2017-09-23T07:31:57.895Z,1010.3
2017-09-23T07:32:59.061Z,1010.3
2017-09-23T07:33:59.805Z,1010.3
2017-09-23T07:35:00.546Z,1010.4
2017-09-23T07:36:01.296Z,1010.3
2017-09-23T07:37:02.044Z,1010.3
2017-09-23T07:38:03.193Z,1010.3
2017-09-23T07:39:03.933Z,1010.3
2017-09-23T07:40:04.656Z,1010.3
2017-09-23T07:41:05.406Z,1010.3
2017-09-23T07:42:06.231Z,1010.3
2017-09-23T07:43:07.246Z,1010.3
2017-09-23T07:44:08.031Z,1010.2
2017-09-23T07:45:08.778Z,1010.2
2017-09-23T07:46:09.561Z,1010.2
2017-09-23T07:47:10.302Z,1010.2
2017-09-23T07:48:11.450Z,1010.2
2017-09-23T07:49:12.219Z,1010.2
2017-09-23T07:50:12.905Z,1010.2
2017-09-23T07:51:13.638Z,1010.2
2017-09-23T07:52:14.383Z,1010.2
2017-09-23T07:53:15.112Z,1010.2
2017-09-23T07:54:15.850Z,1010.2
2017-09-23T07:55:17.032Z,1010.2
2017-09-23T07:56:17.779Z,1010.2
2017-09-23T07:57:18.474Z,1010.2
2017-09-23T07:58:19.262Z,1010.2
2017-09-23T07:59:20.000Z,1010.2
2017-09-23T08:00:21.013Z,1010.2
2017-09-23T08:01:21.754Z,1010.2
2017-09-23T08:02:22.501Z,1010.2
2017-09-23T08:03:23.237Z,1010.2
2017-09-23T08:04:23.983Z,1010.2
2017-09-23T08:05:25.075Z,1010.2
2017-09-23T08:06:25.825Z,1010.2
2017-09-23T08:07:26.625Z,1010.2
2017-09-23T08:08:27.394Z,1010.2
2017-09-23T08:09:28.140Z,1010.2
2017-09-23T08:10:29.181Z,1010.2
2017-09-23T08:11:29.932Z,1010.2
2017-09-23T08:12:30.672Z,1010.2
2017-09-23T08:13:31.424Z,1010.2
2017-09-23T08:14:32.159Z,1010.2
2017-09-23T08:15:33.304Z,1010.3
2017-09-23T08:16:34.112Z,1010.3
2017-09-23T08:17:34.847Z,1010.3
2017-09-23T08:18:35.595Z,1010.3
2017-09-23T08:19:36.349Z,1010.4
2017-09-23T08:20:37.088Z,1010.4
2017-09-23T08:21:37.823Z,1010.4
2017-09-23T08:22:38.563Z,1010.5
2017-09-23T08:23:39.376Z,1010.5
2017-09-23T08:24:40.112Z,1010.5
2017-09-23T08:25:40.859Z,1010.5
2017-09-23T08:26:41.608Z,1010.6
2017-09-23T08:27:42.355Z,1010.6
2017-09-23T08:28:43.110Z,1010.6
2017-09-23T08:29:44.295Z,1010.6
2017-09-23T08:30:45.118Z,1010.6
2017-09-23T08:31:45.862Z,1010.6
2017-09-23T08:32:46.606Z,1010.6
2017-09-23T08:33:47.341Z,1010.6
2017-09-23T08:34:48.085Z,1010.6
2017-09-23T08:35:49.242Z,1010.6
2017-09-23T08:36:50.018Z,1010.7
2017-09-23T08:37:50.817Z,1010.6
2017-09-23T08:38:51.548Z,1010.6
2017-09-23T08:39:52.360Z,1010.7
2017-09-23T08:40:53.096Z,1010.7
2017-09-23T08:41:54.238Z,1010.7
2017-09-23T08:42:55.058Z,1010.7
2017-09-23T08:43:55.875Z,1010.7
2017-09-23T08:44:56.607Z,1010.7
2017-09-23T08:45:57.349Z,1010.7
2017-09-23T08:46:58.454Z,1010.7
2017-09-23T08:47:59.236Z,1010.6
2017-09-23T08:48:59.983Z,1010.7
2017-09-23T08:50:00.769Z,1010.6
2017-09-23T08:51:01.611Z,1010.7
2017-09-23T08:52:02.351Z,1010.7
2017-09-23T08:53:03.090Z,1010.7
2017-09-23T08:54:04.245Z,1010.7
2017-09-23T08:55:04.972Z,1010.7
2017-09-23T08:56:05.715Z,1010.6
2017-09-23T08:57:06.450Z,1010.7
2017-09-23T08:58:07.202Z,1010.7
2017-09-23T08:59:08.257Z,1010.6
2017-09-23T09:00:09.065Z,1010.6
2017-09-23T09:01:09.866Z,1010.6
2017-09-23T09:02:10.605Z,1010.6
2017-09-23T09:03:11.338Z,1010.6
2017-09-23T09:04:12.572Z,1010.6
2017-09-23T09:05:13.323Z,1010.6
2017-09-23T09:06:14.146Z,1010.6
2017-09-23T09:07:14.895Z,1010.6
2017-09-23T09:08:15.690Z,1010.6
2017-09-23T09:09:16.889Z,1010.7
2017-09-23T09:10:17.590Z,1010.6
2017-09-23T09:11:18.383Z,1010.6
2017-09-23T09:12:19.195Z,1010.6
2017-09-23T09:13:19.936Z,1010.6
2017-09-23T09:14:21.105Z,1010.6
2017-09-23T09:15:21.846Z,1010.6
2017-09-23T09:16:22.676Z,1010.6
2017-09-23T09:17:23.420Z,1010.6
2017-09-23T09:18:24.153Z,1010.6
2017-09-23T09:19:24.975Z,1010.5
2017-09-23T09:20:25.853Z,1010.6
2017-09-23T09:21:26.634Z,1010.5
2017-09-23T09:22:27.431Z,1010.6
2017-09-23T09:23:28.168Z,1010.6
2017-09-23T09:24:28.914Z,1010.5
2017-09-23T09:25:30.006Z,1010.6
2017-09-23T09:26:30.734Z,1010.5
2017-09-23T09:27:31.471Z,1010.5
2017-09-23T09:28:32.193Z,1010.5
2017-09-23T09:29:32.933Z,1010.5
2017-09-23T09:30:33.978Z,1010.5
2017-09-23T09:31:34.706Z,1010.5
2017-09-23T09:32:35.454Z,1010.5
2017-09-23T09:33:36.230Z,1010.5
2017-09-23T09:34:36.999Z,1010.5
2017-09-23T09:35:38.091Z,1010.5
2017-09-23T09:36:38.834Z,1010.5
2017-09-23T09:37:39.663Z,1010.5
2017-09-23T09:38:40.447Z,1010.5
2017-09-23T09:39:41.194Z,1010.5
2017-09-23T09:40:42.344Z,1010.5
2017-09-23T09:41:43.021Z,1010.5
2017-09-23T09:42:43.752Z,1010.5
2017-09-23T09:43:44.510Z,1010.5
2017-09-23T09:44:45.286Z,1010.5
2017-09-23T09:45:46.462Z,1010.6
2017-09-23T09:46:47.204Z,1010.6
2017-09-23T09:47:47.944Z,1010.5
2017-09-23T09:48:48.673Z,1010.5
2017-09-23T09:49:49.442Z,1010.5
2017-09-23T09:50:50.531Z,1010.6
2017-09-23T09:51:51.285Z,1010.6
2017-09-23T09:52:52.030Z,1010.5
2017-09-23T09:53:52.824Z,1010.5
2017-09-23T09:54:53.629Z,1010.5
2017-09-23T09:55:54.674Z,1010.5
2017-09-23T09:56:55.406Z,1010.5
2017-09-23T09:57:56.145Z,1010.5
2017-09-23T09:58:56.945Z,1010.4
2017-09-23T09:59:57.708Z,1010.5
2017-09-23T10:00:58.494Z,1010.5
2017-09-23T10:01:59.287Z,1010.5
2017-09-23T10:03:00.495Z,1010.5
2017-09-23T10:04:01.245Z,1010.5
2017-09-23T10:05:02.065Z,1010.4
2017-09-23T10:06:02.799Z,1010.5
2017-09-23T10:07:03.540Z,1010.5
2017-09-23T10:08:04.627Z,1010.5
2017-09-23T10:09:05.435Z,1010.5
2017-09-23T10:10:06.211Z,1010.5
2017-09-23T10:11:06.953Z,1010.5
2017-09-23T10:12:07.742Z,1010.5
2017-09-23T10:13:08.803Z,1010.5
2017-09-23T10:14:09.559Z,1010.5
2017-09-23T10:15:10.346Z,1010.4
2017-09-23T10:16:11.153Z,1010.5
2017-09-23T10:17:11.909Z,1010.5
2017-09-23T10:18:12.951Z,1010.5
2017-09-23T10:19:13.700Z,1010.4
2017-09-23T10:20:14.450Z,1010.5
2017-09-23T10:21:15.190Z,1010.4
2017-09-23T10:22:15.935Z,1010.5
2017-09-23T10:23:16.659Z,1010.4
2017-09-23T10:24:17.405Z,1010.5
2017-09-23T10:25:18.207Z,1010.5
2017-09-23T10:26:19.369Z,1010.5
2017-09-23T10:27:20.190Z,1010.5
2017-09-23T10:28:20.942Z,1010.5
2017-09-23T10:29:21.664Z,1010.5
2017-09-23T10:30:22.406Z,1010.5
2017-09-23T10:31:23.299Z,1010.5
2017-09-23T10:32:24.641Z,1010.5
2017-09-23T10:33:25.440Z,1010.5
2017-09-23T10:34:26.186Z,1010.5
2017-09-23T10:35:26.937Z,1010.4
2017-09-23T10:36:27.673Z,1010.5
2017-09-23T10:37:28.841Z,1010.5
2017-09-23T10:38:29.572Z,1010.5
2017-09-23T10:39:30.374Z,1010.5
2017-09-23T10:40:31.161Z,1010.4
2017-09-23T10:41:31.894Z,1010.4
2017-09-23T10:42:32.994Z,1010.4
2017-09-23T10:43:33.738Z,1010.4
2017-09-23T10:44:34.470Z,1010.4
2017-09-23T10:45:35.220Z,1010.4
2017-09-23T10:46:35.960Z,1010.4
2017-09-23T10:47:37.017Z,1010.4
2017-09-23T10:48:37.840Z,1010.4
2017-09-23T10:49:38.655Z,1010.3
2017-09-23T10:50:39.407Z,1010.3
2017-09-23T10:51:40.194Z,1010.3
2017-09-23T10:52:41.135Z,1010.3
2017-09-23T10:53:41.876Z,1010.3
2017-09-23T10:54:42.633Z,1010.3
2017-09-23T10:55:43.441Z,1010.3
2017-09-23T10:56:44.244Z,1010.3
2017-09-23T10:57:44.991Z,1010.3
2017-09-23T10:58:45.720Z,1010.3
2017-09-23T10:59:46.468Z,1010.3
2017-09-23T11:00:47.221Z,1010.3
2017-09-23T11:01:48.024Z,1010.3
2017-09-23T11:02:49.203Z,1010.2
2017-09-23T11:03:49.961Z,1010.2
2017-09-23T11:04:50.751Z,1010.3
2017-09-23T11:05:52.146Z,1010.3
2017-09-23T11:06:52.833Z,1010.3
2017-09-23T11:07:53.650Z,1010.3
2017-09-23T11:08:54.424Z,1010.3
2017-09-23T11:09:55.205Z,1010.2
2017-09-23T11:10:56.134Z,1010.2
2017-09-23T11:11:57.323Z,1010.3
2017-09-23T11:12:58.394Z,1010.3
2017-09-23T11:13:59.069Z,1010.3
2017-09-23T11:15:00.017Z,1010.3
2017-09-23T11:16:00.881Z,1010.3
2017-09-23T11:17:01.621Z,1010.3
2017-09-23T11:18:02.730Z,1010.2
2017-09-23T11:19:03.529Z,1010.2
2017-09-23T11:20:04.270Z,1010.2
2017-09-23T11:21:05.018Z,1010.2
2017-09-23T11:22:05.932Z,1010.2
2017-09-23T11:23:06.992Z,1010.1
2017-09-23T11:24:07.737Z,1010.1
2017-09-23T11:25:08.547Z,1010.1
2017-09-23T11:26:09.305Z,1010.1
2017-09-23T11:27:10.053Z,1010.1
2017-09-23T11:28:11.092Z,1010.1
2017-09-23T11:29:11.905Z,1010.2
2017-09-23T11:30:12.641Z,1010.1
2017-09-23T11:31:13.403Z,1010.1
2017-09-23T11:32:14.197Z,1010.2
2017-09-23T11:33:15.196Z,1010.2
2017-09-23T11:34:15.930Z,1010.2
2017-09-23T11:35:16.672Z,1010.2
2017-09-23T11:36:17.494Z,1010.2
2017-09-23T11:37:18.246Z,1010.2
2017-09-23T11:38:19.444Z,1010.1
2017-09-23T11:39:20.193Z,1010.1
2017-09-23T11:40:20.984Z,1010.1
2017-09-23T11:41:21.722Z,1010.1
2017-09-23T11:42:22.532Z,1010.1
2017-09-23T11:43:23.473Z,1010.1
2017-09-23T11:44:24.228Z,1010.1
2017-09-23T11:45:25.020Z,1010.1
2017-09-23T11:46:25.820Z,1010.1
2017-09-23T11:47:26.624Z,1010.1
2017-09-23T11:48:27.370Z,1010.1
2017-09-23T11:49:28.364Z,1010.1
2017-09-23T11:50:29.106Z,1010.0
2017-09-23T11:51:29.935Z,1010.0
2017-09-23T11:52:30.686Z,1010.0
2017-09-23T11:53:31.487Z,1010.0
2017-09-23T11:54:32.475Z,1010.0
2017-09-23T11:55:33.215Z,1010.0
2017-09-23T11:56:33.966Z,1010.0
2017-09-23T11:57:34.791Z,1010.1
2017-09-23T11:58:35.516Z,1010.0
2017-09-23T11:59:36.527Z,1010.0
2017-09-23T12:00:37.312Z,1010.0
2017-09-23T12:01:38.057Z,1010.1
2017-09-23T12:02:38.805Z,1010.1
2017-09-23T12:03:39.564Z,1010.0
2017-09-23T12:04:40.735Z,1010.1
2017-09-23T12:05:41.575Z,1010.1
2017-09-23T12:06:42.368Z,1010.1
2017-09-23T12:07:43.115Z,1010.0
2017-09-23T12:08:43.854Z,1010.0
2017-09-23T12:09:44.984Z,1010.1
2017-09-23T12:10:45.723Z,1010.0
2017-09-23T12:11:46.522Z,1010.0
2017-09-23T12:12:47.266Z,1010.0
2017-09-23T12:13:48.006Z,1010.0
2017-09-23T12:14:49.148Z,1010.0
2017-09-23T12:15:49.934Z,1010.0
2017-09-23T12:16:50.755Z,1010.0
2017-09-23T12:17:51.534Z,1010.0
2017-09-23T12:18:52.363Z,1010.0
2017-09-23T12:19:53.436Z,1010.0
2017-09-23T12:20:54.212Z,1010.0
2017-09-23T12:21:55.016Z,1010.1
2017-09-23T12:22:55.760Z,1010.0
2017-09-23T12:23:56.553Z,1010.1
2017-09-23T12:24:57.653Z,1010.1
2017-09-23T12:25:58.449Z,1010.1
2017-09-23T12:26:59.237Z,1010.0
2017-09-23T12:28:00.013Z,1010.0
2017-09-23T12:29:00.771Z,1010.0
2017-09-23T12:30:01.928Z,1010.0
2017-09-23T12:31:02.724Z,1010.0
2017-09-23T12:32:03.523Z,1010.0
2017-09-23T12:33:04.277Z,1010.0
2017-09-23T12:34:05.103Z,1010.0
2017-09-23T12:35:05.850Z,1009.9
2017-09-23T12:36:06.595Z,1010.0
2017-09-23T12:37:07.394Z,1010.0
2017-09-23T12:38:08.144Z,1010.0
2017-09-23T12:39:09.135Z,1010.0